sensor_id;sensor_type;location;lat;lon;timestamp;P1;durP1;ratioP1;P2;durP2;ratioP2
13832;SDS011;6987;19.472;-99.276;2024-01-16T00:00:12;3.92;;;1.45;;
13832;SDS011;6987;19.472;-99.276;2024-01-16T00:02:41;8.05;;;1.92;;
13832;SDS011;6987;19.472;-99.276;2024-01-16T00:05:10;8.38;;;2.03;;
13832;SDS011;6987;19.472;-99.276;2024-01-16T00:07:39;7.72;;;1.75;;
13832;SDS011;6987;19.472;-99.276;2024-01-16T00:10:15;8.77;;;2.10;;
13832;SDS011;6987;19.472;-99.276;2024-01-16T00:12:44;2.30;;;1.50;;
13832;SDS011;6987;19.472;-99.276;2024-01-16T00:15:14;2.13;;;1.88;;
13832;SDS011;6987;19.472;-99.276;2024-01-16T00:17:43;5.75;;;1.70;;
13832;SDS011;6987;19.472;-99.276;2024-01-16T00:20:13;7.13;;;2.58;;
13832;SDS011;6987;19.472;-99.276;2024-01-16T00:22:44;17.73;;;4.25;;
13832;SDS011;6987;19.472;-99.276;2024-01-16T00:25:13;6.40;;;1.88;;
13832;SDS011;6987;19.472;-99.276;2024-01-16T00:27:45;13.35;;;2.42;;
13832;SDS011;6987;19.472;-99.276;2024-01-16T00:30:14;18.40;;;3.90;;
13832;SDS011;6987;19.472;-99.276;2024-01-16T00:32:43;12.98;;;2.40;;
13832;SDS011;6987;19.472;-99.276;2024-01-16T00:35:12;4.40;;;1.88;;
13832;SDS011;6987;19.472;-99.276;2024-01-16T00:37:42;2.88;;;2.00;;
13832;SDS011;6987;19.472;-99.276;2024-01-16T00:40:11;11.20;;;2.70;;
13832;SDS011;6987;19.472;-99.276;2024-01-16T00:42:40;7.13;;;2.63;;
13832;SDS011;6987;19.472;-99.276;2024-01-16T00:45:11;6.78;;;2.35;;
13832;SDS011;6987;19.472;-99.276;2024-01-16T00:47:40;7.85;;;2.25;;
13832;SDS011;6987;19.472;-99.276;2024-01-16T00:50:09;9.35;;;2.78;;
13832;SDS011;6987;19.472;-99.276;2024-01-16T00:52:38;26.52;;;3.80;;
13832;SDS011;6987;19.472;-99.276;2024-01-16T00:55:07;14.73;;;3.72;;
13832;SDS011;6987;19.472;-99.276;2024-01-16T00:57:36;15.52;;;3.55;;
13832;SDS011;6987;19.472;-99.276;2024-01-16T01:00:07;23.48;;;5.35;;
13832;SDS011;6987;19.472;-99.276;2024-01-16T01:02:39;13.88;;;5.00;;
13832;SDS011;6987;19.472;-99.276;2024-01-16T01:05:09;20.80;;;6.05;;
13832;SDS011;6987;19.472;-99.276;2024-01-16T01:07:38;10.73;;;5.22;;
13832;SDS011;6987;19.472;-99.276;2024-01-16T01:10:07;18.25;;;7.35;;
13832;SDS011;6987;19.472;-99.276;2024-01-16T01:12:36;18.42;;;6.95;;
13832;SDS011;6987;19.472;-99.276;2024-01-16T01:15:05;23.02;;;9.73;;
13832;SDS011;6987;19.472;-99.276;2024-01-16T01:17:36;24.00;;;12.65;;
13832;SDS011;6987;19.472;-99.276;2024-01-16T01:20:08;41.30;;;17.58;;
13832;SDS011;6987;19.472;-99.276;2024-01-16T01:22:38;46.55;;;21.38;;
13832;SDS011;6987;19.472;-99.276;2024-01-16T01:25:08;40.58;;;20.23;;
13832;SDS011;6987;19.472;-99.276;2024-01-16T01:27:38;37.92;;;19.83;;
13832;SDS011;6987;19.472;-99.276;2024-01-16T01:30:08;36.40;;;18.35;;
13832;SDS011;6987;19.472;-99.276;2024-01-16T01:32:38;41.22;;;18.35;;
13832;SDS011;6987;19.472;-99.276;2024-01-16T01:35:11;45.47;;;19.58;;
13832;SDS011;6987;19.472;-99.276;2024-01-16T01:37:41;42.42;;;19.60;;
13832;SDS011;6987;19.472;-99.276;2024-01-16T01:40:10;62.80;;;28.77;;
13832;SDS011;6987;19.472;-99.276;2024-01-16T01:42:41;71.40;;;30.08;;
13832;SDS011;6987;19.472;-99.276;2024-01-16T01:45:11;74.18;;;27.98;;
13832;SDS011;6987;19.472;-99.276;2024-01-16T01:47:40;59.83;;;25.08;;
13832;SDS011;6987;19.472;-99.276;2024-01-16T01:50:11;51.38;;;22.75;;
13832;SDS011;6987;19.472;-99.276;2024-01-16T01:52:41;53.78;;;22.63;;
13832;SDS011;6987;19.472;-99.276;2024-01-16T01:55:10;67.18;;;26.55;;
13832;SDS011;6987;19.472;-99.276;2024-01-16T01:57:40;67.72;;;25.23;;
13832;SDS011;6987;19.472;-99.276;2024-01-16T02:00:11;53.20;;;23.50;;
13832;SDS011;6987;19.472;-99.276;2024-01-16T02:02:43;83.28;;;30.75;;
13832;SDS011;6987;19.472;-99.276;2024-01-16T02:05:14;75.97;;;29.77;;
13832;SDS011;6987;19.472;-99.276;2024-01-16T02:07:44;73.32;;;25.08;;
13832;SDS011;6987;19.472;-99.276;2024-01-16T02:10:13;59.60;;;22.42;;
13832;SDS011;6987;19.472;-99.276;2024-01-16T02:12:42;45.17;;;19.38;;
13832;SDS011;6987;19.472;-99.276;2024-01-16T02:15:12;51.70;;;16.25;;
13832;SDS011;6987;19.472;-99.276;2024-01-16T02:17:43;40.60;;;17.30;;
13832;SDS011;6987;19.472;-99.276;2024-01-16T02:20:12;37.13;;;16.88;;
13832;SDS011;6987;19.472;-99.276;2024-01-16T02:22:44;46.22;;;17.67;;
13832;SDS011;6987;19.472;-99.276;2024-01-16T02:25:16;42.40;;;17.65;;
13832;SDS011;6987;19.472;-99.276;2024-01-16T02:27:46;46.65;;;17.48;;
13832;SDS011;6987;19.472;-99.276;2024-01-16T02:30:15;30.38;;;13.80;;
13832;SDS011;6987;19.472;-99.276;2024-01-16T02:32:45;40.53;;;12.90;;
13832;SDS011;6987;19.472;-99.276;2024-01-16T02:35:14;30.67;;;12.10;;
13832;SDS011;6987;19.472;-99.276;2024-01-16T02:37:44;31.17;;;11.75;;
13832;SDS011;6987;19.472;-99.276;2024-01-16T02:40:13;25.05;;;9.55;;
13832;SDS011;6987;19.472;-99.276;2024-01-16T02:42:43;24.02;;;10.48;;
13832;SDS011;6987;19.472;-99.276;2024-01-16T02:45:12;22.30;;;9.93;;
13832;SDS011;6987;19.472;-99.276;2024-01-16T02:47:41;21.25;;;10.68;;
13832;SDS011;6987;19.472;-99.276;2024-01-16T02:50:10;29.30;;;12.07;;
13832;SDS011;6987;19.472;-99.276;2024-01-16T02:52:39;24.35;;;12.75;;
13832;SDS011;6987;19.472;-99.276;2024-01-16T02:55:08;24.60;;;12.93;;
13832;SDS011;6987;19.472;-99.276;2024-01-16T02:57:37;27.23;;;14.25;;
13832;SDS011;6987;19.472;-99.276;2024-01-16T03:00:09;39.85;;;13.18;;
13832;SDS011;6987;19.472;-99.276;2024-01-16T03:02:38;26.15;;;13.10;;
13832;SDS011;6987;19.472;-99.276;2024-01-16T03:05:07;25.30;;;13.15;;
13832;SDS011;6987;19.472;-99.276;2024-01-16T03:07:37;32.85;;;14.13;;
13832;SDS011;6987;19.472;-99.276;2024-01-16T03:10:06;27.65;;;12.57;;
13832;SDS011;6987;19.472;-99.276;2024-01-16T03:12:35;24.50;;;12.43;;
13832;SDS011;6987;19.472;-99.276;2024-01-16T03:15:05;28.55;;;12.65;;
13832;SDS011;6987;19.472;-99.276;2024-01-16T03:17:35;32.28;;;11.02;;
13832;SDS011;6987;19.472;-99.276;2024-01-16T03:20:05;34.47;;;12.15;;
13832;SDS011;6987;19.472;-99.276;2024-01-16T03:22:34;30.65;;;12.52;;
13832;SDS011;6987;19.472;-99.276;2024-01-16T03:25:04;20.80;;;9.98;;
13832;SDS011;6987;19.472;-99.276;2024-01-16T03:27:33;31.33;;;10.85;;
13832;SDS011;6987;19.472;-99.276;2024-01-16T03:30:02;32.30;;;11.27;;
13832;SDS011;6987;19.472;-99.276;2024-01-16T03:32:32;20.17;;;8.88;;
13832;SDS011;6987;19.472;-99.276;2024-01-16T03:35:03;22.25;;;7.78;;
13832;SDS011;6987;19.472;-99.276;2024-01-16T03:37:32;17.38;;;7.72;;
13832;SDS011;6987;19.472;-99.276;2024-01-16T03:40:01;13.90;;;7.75;;
13832;SDS011;6987;19.472;-99.276;2024-01-16T03:42:31;11.10;;;7.03;;
13832;SDS011;6987;19.472;-99.276;2024-01-16T03:45:00;23.35;;;8.18;;
13832;SDS011;6987;19.472;-99.276;2024-01-16T03:47:29;20.73;;;8.00;;
13832;SDS011;6987;19.472;-99.276;2024-01-16T03:49:58;17.42;;;8.43;;
13832;SDS011;6987;19.472;-99.276;2024-01-16T03:52:29;26.48;;;8.38;;
13832;SDS011;6987;19.472;-99.276;2024-01-16T03:54:58;20.65;;;8.18;;
13832;SDS011;6987;19.472;-99.276;2024-01-16T03:57:27;16.77;;;7.97;;
13832;SDS011;6987;19.472;-99.276;2024-01-16T03:59:56;17.23;;;7.40;;
13832;SDS011;6987;19.472;-99.276;2024-01-16T04:02:25;21.08;;;8.63;;
13832;SDS011;6987;19.472;-99.276;2024-01-16T04:04:55;25.42;;;8.52;;
13832;SDS011;6987;19.472;-99.276;2024-01-16T04:07:24;23.67;;;9.05;;
13832;SDS011;6987;19.472;-99.276;2024-01-16T04:09:56;28.40;;;9.13;;
13832;SDS011;6987;19.472;-99.276;2024-01-16T04:12:25;21.17;;;8.35;;
13832;SDS011;6987;19.472;-99.276;2024-01-16T04:14:54;21.55;;;8.88;;
13832;SDS011;6987;19.472;-99.276;2024-01-16T04:17:23;16.23;;;8.77;;
13832;SDS011;6987;19.472;-99.276;2024-01-16T04:19:52;25.63;;;9.63;;
13832;SDS011;6987;19.472;-99.276;2024-01-16T04:22:22;16.75;;;8.80;;
13832;SDS011;6987;19.472;-99.276;2024-01-16T04:24:51;11.82;;;7.88;;
13832;SDS011;6987;19.472;-99.276;2024-01-16T04:27:22;17.08;;;8.00;;
13832;SDS011;6987;19.472;-99.276;2024-01-16T04:29:52;13.05;;;7.57;;
13832;SDS011;6987;19.472;-99.276;2024-01-16T04:32:21;20.13;;;7.40;;
13832;SDS011;6987;19.472;-99.276;2024-01-16T04:34:51;16.92;;;7.78;;
13832;SDS011;6987;19.472;-99.276;2024-01-16T04:37:20;11.43;;;7.72;;
13832;SDS011;6987;19.472;-99.276;2024-01-16T04:39:49;17.58;;;8.30;;
13832;SDS011;6987;19.472;-99.276;2024-01-16T04:42:19;14.88;;;7.68;;
13832;SDS011;6987;19.472;-99.276;2024-01-16T04:44:50;15.57;;;8.00;;
13832;SDS011;6987;19.472;-99.276;2024-01-16T04:47:20;17.52;;;7.90;;
13832;SDS011;6987;19.472;-99.276;2024-01-16T04:49:49;15.60;;;7.80;;
13832;SDS011;6987;19.472;-99.276;2024-01-16T04:52:18;17.58;;;7.78;;
13832;SDS011;6987;19.472;-99.276;2024-01-16T04:54:48;19.30;;;7.00;;
13832;SDS011;6987;19.472;-99.276;2024-01-16T04:57:17;16.55;;;7.65;;
13832;SDS011;6987;19.472;-99.276;2024-01-16T04:59:46;11.18;;;6.90;;
13832;SDS011;6987;19.472;-99.276;2024-01-16T05:02:17;13.85;;;7.32;;
13832;SDS011;6987;19.472;-99.276;2024-01-16T05:04:46;15.98;;;8.57;;
13832;SDS011;6987;19.472;-99.276;2024-01-16T05:07:17;23.55;;;8.93;;
13832;SDS011;6987;19.472;-99.276;2024-01-16T05:09:47;15.32;;;8.50;;
13832;SDS011;6987;19.472;-99.276;2024-01-16T05:12:16;16.92;;;8.30;;
13832;SDS011;6987;19.472;-99.276;2024-01-16T05:14:45;13.75;;;7.90;;
13832;SDS011;6987;19.472;-99.276;2024-01-16T05:17:15;16.52;;;8.25;;
13832;SDS011;6987;19.472;-99.276;2024-01-16T05:19:45;17.80;;;8.60;;
13832;SDS011;6987;19.472;-99.276;2024-01-16T05:22:14;25.02;;;10.25;;
13832;SDS011;6987;19.472;-99.276;2024-01-16T05:24:43;30.08;;;10.40;;
13832;SDS011;6987;19.472;-99.276;2024-01-16T05:27:12;21.65;;;9.55;;
13832;SDS011;6987;19.472;-99.276;2024-01-16T05:29:41;19.95;;;9.13;;
13832;SDS011;6987;19.472;-99.276;2024-01-16T05:32:11;18.08;;;8.45;;
13832;SDS011;6987;19.472;-99.276;2024-01-16T05:34:42;20.05;;;8.18;;
13832;SDS011;6987;19.472;-99.276;2024-01-16T05:37:13;13.82;;;7.53;;
13832;SDS011;6987;19.472;-99.276;2024-01-16T05:39:42;13.20;;;7.10;;
13832;SDS011;6987;19.472;-99.276;2024-01-16T05:42:11;14.45;;;7.20;;
13832;SDS011;6987;19.472;-99.276;2024-01-16T05:44:40;18.30;;;7.43;;
13832;SDS011;6987;19.472;-99.276;2024-01-16T05:47:11;18.90;;;7.18;;
13832;SDS011;6987;19.472;-99.276;2024-01-16T05:49:40;11.55;;;6.22;;
13832;SDS011;6987;19.472;-99.276;2024-01-16T05:52:09;24.73;;;7.20;;
13832;SDS011;6987;19.472;-99.276;2024-01-16T05:54:41;11.10;;;5.45;;
13832;SDS011;6987;19.472;-99.276;2024-01-16T05:57:10;9.00;;;5.35;;
13832;SDS011;6987;19.472;-99.276;2024-01-16T05:59:39;12.57;;;5.57;;
13832;SDS011;6987;19.472;-99.276;2024-01-16T06:02:08;9.38;;;5.18;;
13832;SDS011;6987;19.472;-99.276;2024-01-16T06:04:38;11.15;;;6.05;;
13832;SDS011;6987;19.472;-99.276;2024-01-16T06:07:07;13.57;;;5.30;;
13832;SDS011;6987;19.472;-99.276;2024-01-16T06:09:38;8.73;;;5.18;;
13832;SDS011;6987;19.472;-99.276;2024-01-16T06:12:09;5.90;;;5.07;;
13832;SDS011;6987;19.472;-99.276;2024-01-16T06:14:39;9.93;;;5.45;;
13832;SDS011;6987;19.472;-99.276;2024-01-16T06:17:08;8.93;;;5.88;;
13832;SDS011;6987;19.472;-99.276;2024-01-16T06:19:38;7.97;;;5.50;;
13832;SDS011;6987;19.472;-99.276;2024-01-16T06:22:07;15.43;;;5.90;;
13832;SDS011;6987;19.472;-99.276;2024-01-16T06:24:37;9.63;;;4.90;;
13832;SDS011;6987;19.472;-99.276;2024-01-16T06:27:06;6.53;;;4.97;;
13832;SDS011;6987;19.472;-99.276;2024-01-16T06:29:37;7.07;;;4.65;;
13832;SDS011;6987;19.472;-99.276;2024-01-16T06:32:07;7.97;;;4.82;;
13832;SDS011;6987;19.472;-99.276;2024-01-16T06:34:37;9.00;;;4.97;;
13832;SDS011;6987;19.472;-99.276;2024-01-16T06:37:06;11.55;;;5.18;;
13832;SDS011;6987;19.472;-99.276;2024-01-16T06:39:36;6.40;;;4.30;;
13832;SDS011;6987;19.472;-99.276;2024-01-16T06:42:06;7.00;;;4.38;;
13832;SDS011;6987;19.472;-99.276;2024-01-16T06:44:35;9.85;;;4.78;;
13832;SDS011;6987;19.472;-99.276;2024-01-16T06:47:06;9.63;;;4.57;;
13832;SDS011;6987;19.472;-99.276;2024-01-16T06:49:36;7.97;;;4.45;;
13832;SDS011;6987;19.472;-99.276;2024-01-16T06:52:06;5.20;;;4.53;;
13832;SDS011;6987;19.472;-99.276;2024-01-16T06:54:36;6.78;;;4.32;;
13832;SDS011;6987;19.472;-99.276;2024-01-16T06:57:06;5.32;;;3.60;;
13832;SDS011;6987;19.472;-99.276;2024-01-16T06:59:35;6.63;;;4.35;;
13832;SDS011;6987;19.472;-99.276;2024-01-16T07:02:06;7.75;;;4.03;;
13832;SDS011;6987;19.472;-99.276;2024-01-16T07:04:36;7.50;;;4.65;;
13832;SDS011;6987;19.472;-99.276;2024-01-16T07:07:05;9.20;;;4.85;;
13832;SDS011;6987;19.472;-99.276;2024-01-16T07:09:35;5.90;;;4.55;;
13832;SDS011;6987;19.472;-99.276;2024-01-16T07:12:04;7.30;;;4.55;;
13832;SDS011;6987;19.472;-99.276;2024-01-16T07:14:34;8.63;;;4.70;;
13832;SDS011;6987;19.472;-99.276;2024-01-16T07:17:07;10.18;;;4.88;;
13832;SDS011;6987;19.472;-99.276;2024-01-16T07:19:37;10.98;;;4.13;;
13832;SDS011;6987;19.472;-99.276;2024-01-16T07:22:07;9.43;;;4.35;;
13832;SDS011;6987;19.472;-99.276;2024-01-16T07:24:36;7.55;;;4.22;;
13832;SDS011;6987;19.472;-99.276;2024-01-16T07:27:04;9.60;;;4.80;;
13832;SDS011;6987;19.472;-99.276;2024-01-16T07:29:34;7.53;;;5.07;;
13832;SDS011;6987;19.472;-99.276;2024-01-16T07:32:03;7.43;;;4.70;;
13832;SDS011;6987;19.472;-99.276;2024-01-16T07:34:34;8.93;;;4.88;;
13832;SDS011;6987;19.472;-99.276;2024-01-16T07:37:03;9.98;;;5.13;;
13832;SDS011;6987;19.472;-99.276;2024-01-16T07:39:32;7.60;;;4.63;;
13832;SDS011;6987;19.472;-99.276;2024-01-16T07:42:02;10.50;;;4.75;;
13832;SDS011;6987;19.472;-99.276;2024-01-16T07:44:31;6.65;;;4.63;;
13832;SDS011;6987;19.472;-99.276;2024-01-16T07:47:00;11.20;;;5.13;;
13832;SDS011;6987;19.472;-99.276;2024-01-16T07:49:29;8.02;;;5.53;;
13832;SDS011;6987;19.472;-99.276;2024-01-16T07:52:00;9.30;;;4.40;;
13832;SDS011;6987;19.472;-99.276;2024-01-16T07:54:29;4.82;;;4.35;;
13832;SDS011;6987;19.472;-99.276;2024-01-16T07:56:58;6.50;;;4.65;;
13832;SDS011;6987;19.472;-99.276;2024-01-16T07:59:27;8.32;;;4.63;;
13832;SDS011;6987;19.472;-99.276;2024-01-16T08:01:56;8.30;;;4.65;;
13832;SDS011;6987;19.472;-99.276;2024-01-16T08:04:26;5.70;;;4.38;;
13832;SDS011;6987;19.472;-99.276;2024-01-16T08:06:55;5.70;;;4.70;;
13832;SDS011;6987;19.472;-99.276;2024-01-16T08:09:26;6.57;;;4.85;;
13832;SDS011;6987;19.472;-99.276;2024-01-16T08:11:55;5.57;;;4.75;;
13832;SDS011;6987;19.472;-99.276;2024-01-16T08:14:24;4.55;;;4.15;;
13832;SDS011;6987;19.472;-99.276;2024-01-16T08:16:54;6.28;;;4.30;;
13832;SDS011;6987;19.472;-99.276;2024-01-16T08:19:23;6.70;;;4.22;;
13832;SDS011;6987;19.472;-99.276;2024-01-16T08:21:52;8.15;;;4.65;;
13832;SDS011;6987;19.472;-99.276;2024-01-16T08:24:22;8.15;;;4.47;;
13832;SDS011;6987;19.472;-99.276;2024-01-16T08:26:53;6.57;;;4.38;;
13832;SDS011;6987;19.472;-99.276;2024-01-16T08:29:23;7.03;;;4.45;;
13832;SDS011;6987;19.472;-99.276;2024-01-16T08:31:52;7.05;;;4.78;;
13832;SDS011;6987;19.472;-99.276;2024-01-16T08:34:21;6.05;;;3.90;;
13832;SDS011;6987;19.472;-99.276;2024-01-16T08:36:50;12.13;;;5.05;;
13832;SDS011;6987;19.472;-99.276;2024-01-16T08:39:22;5.93;;;4.55;;
13832;SDS011;6987;19.472;-99.276;2024-01-16T08:41:55;6.50;;;4.63;;
13832;SDS011;6987;19.472;-99.276;2024-01-16T08:44:24;6.63;;;4.53;;
13832;SDS011;6987;19.472;-99.276;2024-01-16T08:46:53;7.07;;;4.63;;
13832;SDS011;6987;19.472;-99.276;2024-01-16T08:49:23;7.20;;;4.35;;
13832;SDS011;6987;19.472;-99.276;2024-01-16T08:51:53;8.43;;;4.28;;
13832;SDS011;6987;19.472;-99.276;2024-01-16T08:54:21;7.65;;;4.80;;
13832;SDS011;6987;19.472;-99.276;2024-01-16T08:56:51;7.30;;;4.82;;
13832;SDS011;6987;19.472;-99.276;2024-01-16T08:59:22;7.75;;;4.65;;
13832;SDS011;6987;19.472;-99.276;2024-01-16T09:01:51;8.07;;;4.85;;
13832;SDS011;6987;19.472;-99.276;2024-01-16T09:04:20;4.75;;;4.35;;
13832;SDS011;6987;19.472;-99.276;2024-01-16T09:06:49;5.80;;;4.57;;
13832;SDS011;6987;19.472;-99.276;2024-01-16T09:09:18;6.38;;;4.25;;
13832;SDS011;6987;19.472;-99.276;2024-01-16T09:11:47;5.03;;;4.57;;
13832;SDS011;6987;19.472;-99.276;2024-01-16T09:14:16;9.10;;;4.20;;
13832;SDS011;6987;19.472;-99.276;2024-01-16T09:16:47;6.75;;;4.38;;
13832;SDS011;6987;19.472;-99.276;2024-01-16T09:19:16;7.70;;;4.68;;
13832;SDS011;6987;19.472;-99.276;2024-01-16T09:21:45;10.52;;;4.80;;
13832;SDS011;6987;19.472;-99.276;2024-01-16T09:24:15;7.15;;;4.65;;
13832;SDS011;6987;19.472;-99.276;2024-01-16T09:26:44;6.30;;;4.65;;
13832;SDS011;6987;19.472;-99.276;2024-01-16T09:29:13;8.93;;;4.45;;
13832;SDS011;6987;19.472;-99.276;2024-01-16T09:31:42;6.40;;;4.40;;
13832;SDS011;6987;19.472;-99.276;2024-01-16T09:34:13;7.35;;;4.95;;
13832;SDS011;6987;19.472;-99.276;2024-01-16T09:36:43;7.07;;;4.55;;
13832;SDS011;6987;19.472;-99.276;2024-01-16T09:39:12;9.05;;;4.78;;
13832;SDS011;6987;19.472;-99.276;2024-01-16T09:41:42;7.93;;;4.05;;
13832;SDS011;6987;19.472;-99.276;2024-01-16T09:44:10;8.73;;;4.35;;
13832;SDS011;6987;19.472;-99.276;2024-01-16T09:46:39;5.45;;;4.05;;
13832;SDS011;6987;19.472;-99.276;2024-01-16T09:49:10;7.35;;;4.45;;
13832;SDS011;6987;19.472;-99.276;2024-01-16T09:51:41;4.45;;;4.05;;
13832;SDS011;6987;19.472;-99.276;2024-01-16T09:54:11;6.07;;;4.68;;
13832;SDS011;6987;19.472;-99.276;2024-01-16T09:56:41;5.90;;;4.45;;
13832;SDS011;6987;19.472;-99.276;2024-01-16T09:59:12;10.43;;;4.18;;
13832;SDS011;6987;19.472;-99.276;2024-01-16T10:01:43;5.93;;;4.60;;
13832;SDS011;6987;19.472;-99.276;2024-01-16T10:04:12;8.20;;;4.35;;
13832;SDS011;6987;19.472;-99.276;2024-01-16T10:06:43;13.05;;;5.22;;
13832;SDS011;6987;19.472;-99.276;2024-01-16T10:09:14;6.95;;;4.95;;
13832;SDS011;6987;19.472;-99.276;2024-01-16T10:11:56;8.63;;;4.82;;
13832;SDS011;6987;19.472;-99.276;2024-01-16T10:14:25;9.48;;;4.40;;
13832;SDS011;6987;19.472;-99.276;2024-01-16T10:16:55;5.65;;;4.68;;
13832;SDS011;6987;19.472;-99.276;2024-01-16T10:19:24;7.22;;;4.70;;
13832;SDS011;6987;19.472;-99.276;2024-01-16T10:21:55;4.80;;;4.30;;
13832;SDS011;6987;19.472;-99.276;2024-01-16T10:24:29;4.53;;;4.13;;
13832;SDS011;6987;19.472;-99.276;2024-01-16T10:26:59;5.82;;;3.92;;
13832;SDS011;6987;19.472;-99.276;2024-01-16T10:29:29;5.10;;;4.55;;
13832;SDS011;6987;19.472;-99.276;2024-01-16T10:31:58;9.45;;;4.22;;
13832;SDS011;6987;19.472;-99.276;2024-01-16T10:34:27;8.82;;;4.15;;
13832;SDS011;6987;19.472;-99.276;2024-01-16T10:36:59;5.55;;;3.92;;
13832;SDS011;6987;19.472;-99.276;2024-01-16T10:39:29;4.88;;;4.38;;
13832;SDS011;6987;19.472;-99.276;2024-01-16T10:41:58;5.47;;;4.70;;
13832;SDS011;6987;19.472;-99.276;2024-01-16T10:44:27;8.20;;;4.88;;
13832;SDS011;6987;19.472;-99.276;2024-01-16T10:47:09;4.57;;;4.13;;
13832;SDS011;6987;19.472;-99.276;2024-01-16T10:49:39;5.70;;;4.70;;
13832;SDS011;6987;19.472;-99.276;2024-01-16T10:52:10;5.53;;;4.13;;
13832;SDS011;6987;19.472;-99.276;2024-01-16T10:54:41;4.75;;;4.35;;
13832;SDS011;6987;19.472;-99.276;2024-01-16T10:57:12;4.45;;;4.05;;
13832;SDS011;6987;19.472;-99.276;2024-01-16T10:59:45;5.50;;;4.00;;
13832;SDS011;6987;19.472;-99.276;2024-01-16T11:02:15;4.30;;;3.90;;
13832;SDS011;6987;19.472;-99.276;2024-01-16T11:04:45;5.20;;;4.53;;
13832;SDS011;6987;19.472;-99.276;2024-01-16T11:07:16;11.38;;;4.43;;
13832;SDS011;6987;19.472;-99.276;2024-01-16T11:09:48;5.97;;;4.47;;
13832;SDS011;6987;19.472;-99.276;2024-01-16T11:12:18;6.18;;;4.25;;
13832;SDS011;6987;19.472;-99.276;2024-01-16T11:14:48;6.05;;;4.03;;
13832;SDS011;6987;19.472;-99.276;2024-01-16T11:17:19;6.60;;;4.25;;
13832;SDS011;6987;19.472;-99.276;2024-01-16T11:19:49;5.10;;;4.45;;
13832;SDS011;6987;19.472;-99.276;2024-01-16T11:22:19;4.63;;;4.13;;
13832;SDS011;6987;19.472;-99.276;2024-01-16T11:27:33;6.32;;;4.43;;
13832;SDS011;6987;19.472;-99.276;2024-01-16T11:30:03;6.43;;;4.40;;
13832;SDS011;6987;19.472;-99.276;2024-01-16T11:32:33;8.95;;;4.72;;
13832;SDS011;6987;19.472;-99.276;2024-01-16T11:35:02;19.40;;;4.80;;
13832;SDS011;6987;19.472;-99.276;2024-01-16T11:37:33;6.72;;;5.22;;
13832;SDS011;6987;19.472;-99.276;2024-01-16T11:42:52;9.23;;;5.63;;
13832;SDS011;6987;19.472;-99.276;2024-01-16T11:48:08;7.95;;;4.95;;
13832;SDS011;6987;19.472;-99.276;2024-01-16T11:50:38;10.70;;;5.57;;
13832;SDS011;6987;19.472;-99.276;2024-01-16T11:53:09;13.00;;;6.22;;
13832;SDS011;6987;19.472;-99.276;2024-01-16T11:55:49;15.75;;;5.80;;
13832;SDS011;6987;19.472;-99.276;2024-01-16T11:58:31;13.00;;;6.13;;
13832;SDS011;6987;19.472;-99.276;2024-01-16T12:01:03;13.82;;;5.40;;
13832;SDS011;6987;19.472;-99.276;2024-01-16T12:03:34;15.93;;;5.20;;
13832;SDS011;6987;19.472;-99.276;2024-01-16T12:06:03;9.15;;;4.53;;
13832;SDS011;6987;19.472;-99.276;2024-01-16T12:08:36;12.85;;;4.80;;
13832;SDS011;6987;19.472;-99.276;2024-01-16T12:11:05;17.40;;;5.40;;
13832;SDS011;6987;19.472;-99.276;2024-01-16T12:13:34;16.13;;;4.68;;
13832;SDS011;6987;19.472;-99.276;2024-01-16T12:16:03;9.73;;;4.85;;
13832;SDS011;6987;19.472;-99.276;2024-01-16T12:18:32;14.25;;;5.00;;
13832;SDS011;6987;19.472;-99.276;2024-01-16T12:21:08;10.65;;;4.88;;
13832;SDS011;6987;19.472;-99.276;2024-01-16T12:23:39;11.00;;;4.32;;
13832;SDS011;6987;19.472;-99.276;2024-01-16T12:26:09;21.70;;;4.68;;
13832;SDS011;6987;19.472;-99.276;2024-01-16T12:28:38;11.55;;;4.85;;
13832;SDS011;6987;19.472;-99.276;2024-01-16T12:31:07;14.98;;;5.00;;
13832;SDS011;6987;19.472;-99.276;2024-01-16T12:33:36;13.48;;;4.82;;
13832;SDS011;6987;19.472;-99.276;2024-01-16T12:36:04;8.43;;;4.35;;
13832;SDS011;6987;19.472;-99.276;2024-01-16T12:38:35;9.07;;;4.75;;
13832;SDS011;6987;19.472;-99.276;2024-01-16T12:41:07;14.85;;;4.57;;
13832;SDS011;6987;19.472;-99.276;2024-01-16T12:43:36;9.63;;;4.18;;
13832;SDS011;6987;19.472;-99.276;2024-01-16T12:46:05;8.43;;;4.78;;
13832;SDS011;6987;19.472;-99.276;2024-01-16T12:48:35;8.60;;;4.13;;
13832;SDS011;6987;19.472;-99.276;2024-01-16T12:51:05;12.10;;;4.45;;
13832;SDS011;6987;19.472;-99.276;2024-01-16T12:53:35;12.05;;;4.60;;
13832;SDS011;6987;19.472;-99.276;2024-01-16T12:56:07;15.35;;;4.93;;
13832;SDS011;6987;19.472;-99.276;2024-01-16T12:58:37;15.73;;;5.22;;
13832;SDS011;6987;19.472;-99.276;2024-01-16T13:03:53;13.98;;;4.70;;
13832;SDS011;6987;19.472;-99.276;2024-01-16T13:06:22;14.63;;;4.38;;
13832;SDS011;6987;19.472;-99.276;2024-01-16T13:09:03;10.68;;;4.15;;
13832;SDS011;6987;19.472;-99.276;2024-01-16T13:11:47;16.58;;;4.40;;
13832;SDS011;6987;19.472;-99.276;2024-01-16T13:14:18;15.02;;;5.18;;
13832;SDS011;6987;19.472;-99.276;2024-01-16T13:16:49;13.27;;;4.63;;
13832;SDS011;6987;19.472;-99.276;2024-01-16T13:19:18;10.32;;;4.63;;
13832;SDS011;6987;19.472;-99.276;2024-01-16T13:21:47;14.05;;;4.85;;
13832;SDS011;6987;19.472;-99.276;2024-01-16T13:24:16;19.25;;;5.10;;
13832;SDS011;6987;19.472;-99.276;2024-01-16T13:26:50;13.88;;;4.72;;
13832;SDS011;6987;19.472;-99.276;2024-01-16T13:29:19;13.07;;;5.05;;
13832;SDS011;6987;19.472;-99.276;2024-01-16T13:31:48;18.92;;;5.05;;
13832;SDS011;6987;19.472;-99.276;2024-01-16T13:34:20;13.40;;;4.80;;
13832;SDS011;6987;19.472;-99.276;2024-01-16T13:36:49;15.13;;;5.07;;
13832;SDS011;6987;19.472;-99.276;2024-01-16T13:39:20;19.52;;;5.30;;
13832;SDS011;6987;19.472;-99.276;2024-01-16T13:41:50;25.98;;;6.45;;
13832;SDS011;6987;19.472;-99.276;2024-01-16T13:44:19;27.52;;;6.03;;
13832;SDS011;6987;19.472;-99.276;2024-01-16T13:46:49;28.88;;;5.93;;
13832;SDS011;6987;19.472;-99.276;2024-01-16T13:49:19;15.18;;;5.68;;
13832;SDS011;6987;19.472;-99.276;2024-01-16T13:51:48;29.25;;;5.93;;
13832;SDS011;6987;19.472;-99.276;2024-01-16T13:54:17;24.48;;;5.65;;
13832;SDS011;6987;19.472;-99.276;2024-01-16T13:56:46;18.52;;;5.78;;
13832;SDS011;6987;19.472;-99.276;2024-01-16T13:59:17;15.02;;;6.07;;
13832;SDS011;6987;19.472;-99.276;2024-01-16T14:01:46;16.75;;;4.93;;
13832;SDS011;6987;19.472;-99.276;2024-01-16T14:04:15;18.95;;;5.43;;
13832;SDS011;6987;19.472;-99.276;2024-01-16T14:06:44;20.10;;;6.22;;
13832;SDS011;6987;19.472;-99.276;2024-01-16T14:09:13;22.48;;;5.93;;
13832;SDS011;6987;19.472;-99.276;2024-01-16T14:11:41;25.38;;;6.25;;
13832;SDS011;6987;19.472;-99.276;2024-01-16T14:14:10;27.05;;;5.80;;
13832;SDS011;6987;19.472;-99.276;2024-01-16T14:16:40;19.23;;;6.05;;
13832;SDS011;6987;19.472;-99.276;2024-01-16T14:19:12;21.52;;;5.63;;
13832;SDS011;6987;19.472;-99.276;2024-01-16T14:21:41;22.92;;;5.63;;
13832;SDS011;6987;19.472;-99.276;2024-01-16T14:24:09;21.58;;;6.15;;
13832;SDS011;6987;19.472;-99.276;2024-01-16T14:26:38;35.40;;;6.53;;
13832;SDS011;6987;19.472;-99.276;2024-01-16T14:29:07;19.95;;;6.20;;
13832;SDS011;6987;19.472;-99.276;2024-01-16T14:31:36;20.15;;;5.55;;
13832;SDS011;6987;19.472;-99.276;2024-01-16T14:34:07;16.17;;;5.25;;
13832;SDS011;6987;19.472;-99.276;2024-01-16T14:36:36;22.08;;;5.47;;
13832;SDS011;6987;19.472;-99.276;2024-01-16T14:39:05;19.52;;;5.20;;
13832;SDS011;6987;19.472;-99.276;2024-01-16T14:41:35;21.25;;;6.13;;
13832;SDS011;6987;19.472;-99.276;2024-01-16T14:44:04;29.20;;;7.38;;
13832;SDS011;6987;19.472;-99.276;2024-01-16T14:46:35;39.85;;;6.82;;
13832;SDS011;6987;19.472;-99.276;2024-01-16T14:49:04;26.52;;;5.75;;
13832;SDS011;6987;19.472;-99.276;2024-01-16T14:51:36;27.25;;;6.60;;